sensor_id;sensor_type;location;lat;lon;timestamp;pressure;altitude;pressure_sealevel;temperature
82297;BMP280;71899;51.992;8.648;2023-10-19T00:00:54;98396.75;;;9.91
82297;BMP280;71899;51.992;8.648;2023-10-19T00:03:21;98400.28;;;10.00
82297;BMP280;71899;51.992;8.648;2023-10-19T00:05:48;98389.03;;;9.90
82297;BMP280;71899;51.992;8.648;2023-10-19T00:08:14;98388.72;;;9.74
82297;BMP280;71899;51.992;8.648;2023-10-19T00:10:43;98382.81;;;9.81
82297;BMP280;71899;51.992;8.648;2023-10-19T00:13:11;98361.56;;;9.76
82297;BMP280;71899;51.992;8.648;2023-10-19T00:15:41;98378.59;;;9.90
82297;BMP280;71899;51.992;8.648;2023-10-19T00:18:12;98359.38;;;9.91
82297;BMP280;71899;51.992;8.648;2023-10-19T00:20:44;98364.84;;;9.78
82297;BMP280;71899;51.992;8.648;2023-10-19T00:23:10;98337.22;;;9.57
82297;BMP280;71899;51.992;8.648;2023-10-19T00:25:38;98361.41;;;9.78
82297;BMP280;71899;51.992;8.648;2023-10-19T00:28:08;98339.16;;;9.55
82297;BMP280;71899;51.992;8.648;2023-10-19T00:30:34;98348.63;;;9.56
82297;BMP280;71899;51.992;8.648;2023-10-19T00:33:02;98343.81;;;9.51
82297;BMP280;71899;51.992;8.648;2023-10-19T00:35:41;98333.78;;;9.46
82297;BMP280;71899;51.992;8.648;2023-10-19T00:38:23;98331.00;;;9.38
82297;BMP280;71899;51.992;8.648;2023-10-19T00:41:09;98335.03;;;9.52
82297;BMP280;71899;51.992;8.648;2023-10-19T00:43:42;98334.47;;;9.49
82297;BMP280;71899;51.992;8.648;2023-10-19T00:46:11;98330.91;;;9.59
82297;BMP280;71899;51.992;8.648;2023-10-19T00:48:45;98329.53;;;9.65
82297;BMP280;71899;51.992;8.648;2023-10-19T00:51:14;98313.63;;;9.58
82297;BMP280;71899;51.992;8.648;2023-10-19T00:53:57;98315.81;;;9.63
82297;BMP280;71899;51.992;8.648;2023-10-19T00:56:24;98317.75;;;9.80
82297;BMP280;71899;51.992;8.648;2023-10-19T00:58:53;98315.41;;;9.77
82297;BMP280;71899;51.992;8.648;2023-10-19T01:01:24;98302.38;;;9.77
82297;BMP280;71899;51.992;8.648;2023-10-19T01:03:53;98287.81;;;9.74
82297;BMP280;71899;51.992;8.648;2023-10-19T01:06:23;98287.13;;;9.72
82297;BMP280;71899;51.992;8.648;2023-10-19T01:08:48;98295.91;;;9.62
82297;BMP280;71899;51.992;8.648;2023-10-19T01:11:16;98293.84;;;9.65
82297;BMP280;71899;51.992;8.648;2023-10-19T01:13:46;98282.19;;;9.79
82297;BMP280;71899;51.992;8.648;2023-10-19T01:16:17;98286.84;;;9.66
82297;BMP280;71899;51.992;8.648;2023-10-19T01:18:49;98285.88;;;9.67
82297;BMP280;71899;51.992;8.648;2023-10-19T01:21:27;98263.09;;;9.69
82297;BMP280;71899;51.992;8.648;2023-10-19T01:24:07;98261.72;;;9.65
82297;BMP280;71899;51.992;8.648;2023-10-19T01:26:32;98255.84;;;9.63
82297;BMP280;71899;51.992;8.648;2023-10-19T01:29:02;98249.75;;;9.53
82297;BMP280;71899;51.992;8.648;2023-10-19T01:31:38;98258.56;;;9.71
82297;BMP280;71899;51.992;8.648;2023-10-19T01:34:05;98244.84;;;9.59
82297;BMP280;71899;51.992;8.648;2023-10-19T01:36:32;98265.03;;;9.76
82297;BMP280;71899;51.992;8.648;2023-10-19T01:39:09;98246.50;;;9.70
82297;BMP280;71899;51.992;8.648;2023-10-19T01:41:35;98236.59;;;9.64
82297;BMP280;71899;51.992;8.648;2023-10-19T01:44:00;98257.59;;;9.72
82297;BMP280;71899;51.992;8.648;2023-10-19T01:46:33;98240.72;;;9.66
82297;BMP280;71899;51.992;8.648;2023-10-19T01:49:00;98243.59;;;9.82
82297;BMP280;71899;51.992;8.648;2023-10-19T01:51:29;98246.75;;;9.86
82297;BMP280;71899;51.992;8.648;2023-10-19T01:53:58;98231.34;;;9.92
82297;BMP280;71899;51.992;8.648;2023-10-19T01:56:26;98215.03;;;9.90
82297;BMP280;71899;51.992;8.648;2023-10-19T01:58:52;98228.31;;;9.97
82297;BMP280;71899;51.992;8.648;2023-10-19T02:01:19;98232.44;;;10.00
82297;BMP280;71899;51.992;8.648;2023-10-19T02:03:45;98228.31;;;9.97
82297;BMP280;71899;51.992;8.648;2023-10-19T02:06:14;98220.06;;;9.92
82297;BMP280;71899;51.992;8.648;2023-10-19T02:08:51;98224.47;;;10.01
82297;BMP280;71899;51.992;8.648;2023-10-19T02:11:23;98217.75;;;9.99
82297;BMP280;71899;51.992;8.648;2023-10-19T02:13:52;98207.03;;;10.02
82297;BMP280;71899;51.992;8.648;2023-10-19T02:16:18;98199.63;;;9.97
82297;BMP280;71899;51.992;8.648;2023-10-19T02:18:51;98209.06;;;10.17
82297;BMP280;71899;51.992;8.648;2023-10-19T02:21:18;98203.03;;;10.07
82297;BMP280;71899;51.992;8.648;2023-10-19T02:23:56;98207.81;;;10.12
82297;BMP280;71899;51.992;8.648;2023-10-19T02:26:23;98188.84;;;10.10
82297;BMP280;71899;51.992;8.648;2023-10-19T02:28:51;98186.28;;;10.00
82297;BMP280;71899;51.992;8.648;2023-10-19T02:31:17;98188.31;;;10.06
82297;BMP280;71899;51.992;8.648;2023-10-19T02:33:49;98188.59;;;10.13
82297;BMP280;71899;51.992;8.648;2023-10-19T02:36:23;98190.13;;;10.15
82297;BMP280;71899;51.992;8.648;2023-10-19T02:38:49;98178.28;;;10.21
82297;BMP280;71899;51.992;8.648;2023-10-19T02:41:16;98164.56;;;10.19
82297;BMP280;71899;51.992;8.648;2023-10-19T02:43:46;98176.13;;;10.16
82297;BMP280;71899;51.992;8.648;2023-10-19T02:46:16;98181.34;;;10.16
82297;BMP280;71899;51.992;8.648;2023-10-19T02:48:45;98164.56;;;10.19
82297;BMP280;71899;51.992;8.648;2023-10-19T02:51:13;98160.44;;;10.07
82297;BMP280;71899;51.992;8.648;2023-10-19T02:53:41;98170.31;;;10.13
82297;BMP280;71899;51.992;8.648;2023-10-19T02:56:14;98164.28;;;10.12
82297;BMP280;71899;51.992;8.648;2023-10-19T02:58:43;98155.09;;;10.08
82297;BMP280;71899;51.992;8.648;2023-10-19T03:01:18;98136.97;;;10.16
82297;BMP280;71899;51.992;8.648;2023-10-19T03:03:48;98154.59;;;10.32
82297;BMP280;71899;51.992;8.648;2023-10-19T03:06:18;98157.63;;;10.27
82297;BMP280;71899;51.992;8.648;2023-10-19T03:08:45;98158.03;;;10.32
82297;BMP280;71899;51.992;8.648;2023-10-19T03:11:12;98152.03;;;10.50
82297;BMP280;71899;51.992;8.648;2023-10-19T03:13:38;98149.81;;;10.55
82297;BMP280;71899;51.992;8.648;2023-10-19T03:16:07;98129.25;;;10.42
82297;BMP280;71899;51.992;8.648;2023-10-19T03:18:34;98133.78;;;10.13
82297;BMP280;71899;51.992;8.648;2023-10-19T03:21:03;98150.72;;;10.36
82297;BMP280;71899;51.992;8.648;2023-10-19T03:23:28;98133.81;;;10.40
82297;BMP280;71899;51.992;8.648;2023-10-19T03:25:55;98126.91;;;10.49
82297;BMP280;71899;51.992;8.648;2023-10-19T03:28:27;98108.66;;;10.39
82297;BMP280;71899;51.992;8.648;2023-10-19T03:30:54;98109.88;;;10.44
82297;BMP280;71899;51.992;8.648;2023-10-19T03:33:20;98137.59;;;10.55
82297;BMP280;71899;51.992;8.648;2023-10-19T03:35:45;98108.97;;;10.36
82297;BMP280;71899;51.992;8.648;2023-10-19T03:38:11;98117.41;;;10.48
82297;BMP280;71899;51.992;8.648;2023-10-19T03:40:41;98104.50;;;10.46
82297;BMP280;71899;51.992;8.648;2023-10-19T03:43:11;98115.44;;;10.59
82297;BMP280;71899;51.992;8.648;2023-10-19T03:45:50;98113.88;;;10.66
82297;BMP280;71899;51.992;8.648;2023-10-19T03:48:19;98108.28;;;10.79
82297;BMP280;71899;51.992;8.648;2023-10-19T03:50:50;98111.94;;;10.86
82297;BMP280;71899;51.992;8.648;2023-10-19T03:53:17;98088.28;;;10.87
82297;BMP280;71899;51.992;8.648;2023-10-19T03:55:43;98112.63;;;11.06
82297;BMP280;71899;51.992;8.648;2023-10-19T03:58:09;98099.38;;;11.07
82297;BMP280;71899;51.992;8.648;2023-10-19T04:00:37;98092.25;;;11.09
82297;BMP280;71899;51.992;8.648;2023-10-19T04:03:03;98090.16;;;10.95
82297;BMP280;71899;51.992;8.648;2023-10-19T04:05:28;98079.75;;;10.85
82297;BMP280;71899;51.992;8.648;2023-10-19T04:07:53;98055.94;;;10.71
82297;BMP280;71899;51.992;8.648;2023-10-19T04:10:23;98090.81;;;10.97
82297;BMP280;71899;51.992;8.648;2023-10-19T04:12:55;98088.09;;;11.07
82297;BMP280;71899;51.992;8.648;2023-10-19T04:15:20;98075.78;;;10.99
82297;BMP280;71899;51.992;8.648;2023-10-19T04:17:47;98070.19;;;11.12
82297;BMP280;71899;51.992;8.648;2023-10-19T04:20:17;98088.09;;;11.24
82297;BMP280;71899;51.992;8.648;2023-10-19T04:22:49;98083.16;;;11.21
82297;BMP280;71899;51.992;8.648;2023-10-19T04:25:16;98084.44;;;11.17
82297;BMP280;71899;51.992;8.648;2023-10-19T04:27:45;98078.63;;;11.23
82297;BMP280;71899;51.992;8.648;2023-10-19T04:30:12;98062.88;;;11.15
82297;BMP280;71899;51.992;8.648;2023-10-19T04:32:45;98068.84;;;11.08
82297;BMP280;71899;51.992;8.648;2023-10-19T04:35:15;98071.56;;;11.24
82297;BMP280;71899;51.992;8.648;2023-10-19T04:37:55;98050.63;;;11.16
82297;BMP280;71899;51.992;8.648;2023-10-19T04:40:22;98063.38;;;11.19
82297;BMP280;71899;51.992;8.648;2023-10-19T04:42:50;98047.09;;;11.07
82297;BMP280;71899;51.992;8.648;2023-10-19T04:45:15;98063.19;;;11.38
82297;BMP280;71899;51.992;8.648;2023-10-19T04:47:41;98040.50;;;11.21
82297;BMP280;71899;51.992;8.648;2023-10-19T04:50:07;98048.63;;;11.35
82297;BMP280;71899;51.992;8.648;2023-10-19T04:52:36;98046.97;;;11.60
82297;BMP280;71899;51.992;8.648;2023-10-19T04:55:01;98053.16;;;11.77
82297;BMP280;71899;51.992;8.648;2023-10-19T04:57:27;98056.00;;;11.66
82297;BMP280;71899;51.992;8.648;2023-10-19T04:59:52;98039.31;;;11.67
82297;BMP280;71899;51.992;8.648;2023-10-19T05:02:18;98040.59;;;11.80
82297;BMP280;71899;51.992;8.648;2023-10-19T05:04:44;98046.00;;;11.87
82297;BMP280;71899;51.992;8.648;2023-10-19T05:07:12;98033.50;;;11.73
82297;BMP280;71899;51.992;8.648;2023-10-19T05:09:42;98053.09;;;11.95
82297;BMP280;71899;51.992;8.648;2023-10-19T05:12:07;98058.47;;;11.93
82297;BMP280;71899;51.992;8.648;2023-10-19T05:14:38;98048.34;;;11.98
82297;BMP280;71899;51.992;8.648;2023-10-19T05:17:05;98044.59;;;12.01
82297;BMP280;71899;51.992;8.648;2023-10-19T05:19:33;98040.50;;;12.06
82297;BMP280;71899;51.992;8.648;2023-10-19T05:22:04;98039.88;;;12.04
82297;BMP280;71899;51.992;8.648;2023-10-19T05:24:29;98028.53;;;11.96
82297;BMP280;71899;51.992;8.648;2023-10-19T05:26:55;98056.72;;;12.02
82297;BMP280;71899;51.992;8.648;2023-10-19T05:29:33;98046.84;;;11.96
82297;BMP280;71899;51.992;8.648;2023-10-19T05:31:58;98042.94;;;12.00
82297;BMP280;71899;51.992;8.648;2023-10-19T05:34:24;98058.19;;;12.04
82297;BMP280;71899;51.992;8.648;2023-10-19T05:36:52;98057.38;;;12.04
82297;BMP280;71899;51.992;8.648;2023-10-19T05:39:19;98016.72;;;11.83
82297;BMP280;71899;51.992;8.648;2023-10-19T05:41:45;98051.94;;;11.97
82297;BMP280;71899;51.992;8.648;2023-10-19T05:44:10;98043.72;;;11.84
82297;BMP280;71899;51.992;8.648;2023-10-19T05:46:36;98041.28;;;11.65
82297;BMP280;71899;51.992;8.648;2023-10-19T05:49:02;98053.50;;;11.82
82297;BMP280;71899;51.992;8.648;2023-10-19T05:51:29;98057.31;;;11.87
82297;BMP280;71899;51.992;8.648;2023-10-19T05:53:55;98060.38;;;11.83
82297;BMP280;71899;51.992;8.648;2023-10-19T05:56:27;98055.81;;;11.85
82297;BMP280;71899;51.992;8.648;2023-10-19T05:58:52;98053.56;;;11.90
82297;BMP280;71899;51.992;8.648;2023-10-19T06:01:19;98054.72;;;11.96
82297;BMP280;71899;51.992;8.648;2023-10-19T06:03:45;98060.75;;;11.96
82297;BMP280;71899;51.992;8.648;2023-10-19T06:06:10;98051.78;;;11.99
82297;BMP280;71899;51.992;8.648;2023-10-19T06:08:35;98071.69;;;11.91
82297;BMP280;71899;51.992;8.648;2023-10-19T06:11:01;98073.41;;;12.01
82297;BMP280;71899;51.992;8.648;2023-10-19T06:13:26;98074.53;;;11.98
82297;BMP280;71899;51.992;8.648;2023-10-19T06:15:51;98067.16;;;11.93
82297;BMP280;71899;51.992;8.648;2023-10-19T06:18:17;98083.75;;;12.10
82297;BMP280;71899;51.992;8.648;2023-10-19T06:20:46;98071.50;;;12.19
82297;BMP280;71899;51.992;8.648;2023-10-19T06:23:12;98085.28;;;12.29
82297;BMP280;71899;51.992;8.648;2023-10-19T06:25:38;98089.38;;;12.23
82297;BMP280;71899;51.992;8.648;2023-10-19T06:28:04;98068.72;;;12.20
82297;BMP280;71899;51.992;8.648;2023-10-19T06:30:30;98074.50;;;12.32
82297;BMP280;71899;51.992;8.648;2023-10-19T06:32:57;98088.06;;;12.19
82297;BMP280;71899;51.992;8.648;2023-10-19T06:35:26;98076.13;;;12.33
82297;BMP280;71899;51.992;8.648;2023-10-19T06:37:52;98075.31;;;12.32
82297;BMP280;71899;51.992;8.648;2023-10-19T06:40:18;98070.13;;;12.07
82297;BMP280;71899;51.992;8.648;2023-10-19T06:42:46;98067.47;;;12.32
82297;BMP280;71899;51.992;8.648;2023-10-19T06:45:13;98063.88;;;12.41
82297;BMP280;71899;51.992;8.648;2023-10-19T06:47:43;98060.84;;;12.62
82297;BMP280;71899;51.992;8.648;2023-10-19T06:50:11;98067.34;;;12.50
82297;BMP280;71899;51.992;8.648;2023-10-19T06:52:37;98060.50;;;12.81
82297;BMP280;71899;51.992;8.648;2023-10-19T06:55:04;98076.25;;;13.06
82297;BMP280;71899;51.992;8.648;2023-10-19T06:57:31;98076.31;;;13.22
82297;BMP280;71899;51.992;8.648;2023-10-19T07:00:00;98057.94;;;13.30
82297;BMP280;71899;51.992;8.648;2023-10-19T07:02:35;98050.72;;;13.32
82297;BMP280;71899;51.992;8.648;2023-10-19T07:05:01;98068.84;;;13.74
82297;BMP280;71899;51.992;8.648;2023-10-19T07:07:28;98051.75;;;13.94
82297;BMP280;71899;51.992;8.648;2023-10-19T07:09:53;98059.09;;;13.99
82297;BMP280;71899;51.992;8.648;2023-10-19T07:12:18;98054.78;;;14.06
82297;BMP280;71899;51.992;8.648;2023-10-19T07:14:44;98069.31;;;13.94
82297;BMP280;71899;51.992;8.648;2023-10-19T07:17:09;98077.31;;;14.00
82297;BMP280;71899;51.992;8.648;2023-10-19T07:19:34;98063.09;;;13.86
82297;BMP280;71899;51.992;8.648;2023-10-19T07:22:00;98081.47;;;13.86
82297;BMP280;71899;51.992;8.648;2023-10-19T07:24:29;98068.59;;;14.08
82297;BMP280;71899;51.992;8.648;2023-10-19T07:26:54;98077.53;;;13.90
82297;BMP280;71899;51.992;8.648;2023-10-19T07:29:29;98078.88;;;14.25
82297;BMP280;71899;51.992;8.648;2023-10-19T07:32:28;98047.94;;;14.44
82297;BMP280;71899;51.992;8.648;2023-10-19T07:34:57;98075.91;;;14.36
82297;BMP280;71899;51.992;8.648;2023-10-19T07:37:25;98063.22;;;14.32
82297;BMP280;71899;51.992;8.648;2023-10-19T07:39:58;98042.00;;;14.42
82297;BMP280;71899;51.992;8.648;2023-10-19T07:42:36;98062.84;;;14.74
82297;BMP280;71899;51.992;8.648;2023-10-19T07:45:04;98058.41;;;14.52
82297;BMP280;71899;51.992;8.648;2023-10-19T07:48:05;98054.63;;;15.00
82297;BMP280;71899;51.992;8.648;2023-10-19T07:50:37;98071.56;;;15.20
82297;BMP280;71899;51.992;8.648;2023-10-19T07:53:03;98038.63;;;15.24
82297;BMP280;71899;51.992;8.648;2023-10-19T07:55:29;98056.69;;;15.50
82297;BMP280;71899;51.992;8.648;2023-10-19T07:57:57;98083.34;;;15.69
82297;BMP280;71899;51.992;8.648;2023-10-19T08:00:25;98072.69;;;14.80
82297;BMP280;71899;51.992;8.648;2023-10-19T08:02:52;98079.09;;;14.77
82297;BMP280;71899;51.992;8.648;2023-10-19T08:05:19;98077.00;;;14.73
82297;BMP280;71899;51.992;8.648;2023-10-19T08:07:45;98079.28;;;14.76
82297;BMP280;71899;51.992;8.648;2023-10-19T08:10:15;98075.31;;;14.80
82297;BMP280;71899;51.992;8.648;2023-10-19T08:12:41;98068.69;;;14.84
82297;BMP280;71899;51.992;8.648;2023-10-19T08:15:11;98081.50;;;15.10
82297;BMP280;71899;51.992;8.648;2023-10-19T08:17:40;98070.41;;;15.22
82297;BMP280;71899;51.992;8.648;2023-10-19T08:20:08;98072.94;;;15.30
82297;BMP280;71899;51.992;8.648;2023-10-19T08:22:50;98080.97;;;15.37
82297;BMP280;71899;51.992;8.648;2023-10-19T08:25:25;98055.22;;;15.47
82297;BMP280;71899;51.992;8.648;2023-10-19T08:27:54;98082.50;;;15.54
82297;BMP280;71899;51.992;8.648;2023-10-19T08:30:25;98080.59;;;15.77
82297;BMP280;71899;51.992;8.648;2023-10-19T08:32:51;98067.53;;;16.13
82297;BMP280;71899;51.992;8.648;2023-10-19T08:35:18;98073.22;;;16.46
82297;BMP280;71899;51.992;8.648;2023-10-19T08:37:48;98098.88;;;17.09
82297;BMP280;71899;51.992;8.648;2023-10-19T08:40:15;98072.91;;;17.13
82297;BMP280;71899;51.992;8.648;2023-10-19T08:42:42;98068.78;;;17.25
82297;BMP280;71899;51.992;8.648;2023-10-19T08:45:09;98088.25;;;17.73
82297;BMP280;71899;51.992;8.648;2023-10-19T08:47:40;98078.31;;;18.50
82297;BMP280;71899;51.992;8.648;2023-10-19T08:50:07;98071.72;;;18.80
82297;BMP280;71899;51.992;8.648;2023-10-19T08:52:34;98077.28;;;19.18
82297;BMP280;71899;51.992;8.648;2023-10-19T08:55:00;98061.59;;;19.23
82297;BMP280;71899;51.992;8.648;2023-10-19T08:57:26;98079.53;;;19.35
82297;BMP280;71899;51.992;8.648;2023-10-19T09:00:07;98068.34;;;19.39
82297;BMP280;71899;51.992;8.648;2023-10-19T09:02:35;98048.53;;;19.09
82297;BMP280;71899;51.992;8.648;2023-10-19T09:05:10;98061.00;;;19.28
82297;BMP280;71899;51.992;8.648;2023-10-19T09:07:49;98063.59;;;18.82
82297;BMP280;71899;51.992;8.648;2023-10-19T09:10:26;98050.00;;;19.18
82297;BMP280;71899;51.992;8.648;2023-10-19T09:15:27;98076.06;;;19.08
82297;BMP280;71899;51.992;8.648;2023-10-19T09:17:58;98083.47;;;18.58
82297;BMP280;71899;51.992;8.648;2023-10-19T09:20:24;98069.69;;;18.76
82297;BMP280;71899;51.992;8.648;2023-10-19T09:22:55;98069.47;;;18.77
82297;BMP280;71899;51.992;8.648;2023-10-19T09:25:25;98055.00;;;18.80
82297;BMP280;71899;51.992;8.648;2023-10-19T09:27:51;98055.66;;;19.02
82297;BMP280;71899;51.992;8.648;2023-10-19T09:30:17;98064.47;;;19.15
82297;BMP280;71899;51.992;8.648;2023-10-19T09:32:46;98065.91;;;19.57
82297;BMP280;71899;51.992;8.648;2023-10-19T09:35:19;98062.81;;;19.80
82297;BMP280;71899;51.992;8.648;2023-10-19T09:37:45;98050.63;;;19.72
82297;BMP280;71899;51.992;8.648;2023-10-19T09:40:11;98036.75;;;19.44
82297;BMP280;71899;51.992;8.648;2023-10-19T09:42:43;98059.78;;;19.83
82297;BMP280;71899;51.992;8.648;2023-10-19T09:45:18;98062.00;;;19.86
82297;BMP280;71899;51.992;8.648;2023-10-19T09:47:50;98067.50;;;19.85
82297;BMP280;71899;51.992;8.648;2023-10-19T09:50:16;98049.38;;;19.75
82297;BMP280;71899;51.992;8.648;2023-10-19T09:52:45;98059.75;;;19.96
82297;BMP280;71899;51.992;8.648;2023-10-19T09:55:33;98043.22;;;20.01
82297;BMP280;71899;51.992;8.648;2023-10-19T09:58:27;98022.59;;;20.03
82297;BMP280;71899;51.992;8.648;2023-10-19T10:01:01;98029.63;;;20.35
82297;BMP280;71899;51.992;8.648;2023-10-19T10:07:01;98034.22;;;20.59
82297;BMP280;71899;51.992;8.648;2023-10-19T10:09:02;98033.88;;;20.43
82297;BMP280;71899;51.992;8.648;2023-10-19T10:11:28;98039.34;;;19.97
82297;BMP280;71899;51.992;8.648;2023-10-19T10:13:57;98033.63;;;19.93
82297;BMP280;71899;51.992;8.648;2023-10-19T10:16:25;98040.72;;;20.06
82297;BMP280;71899;51.992;8.648;2023-10-19T10:18:55;98016.56;;;19.69
82297;BMP280;71899;51.992;8.648;2023-10-19T10:21:21;98031.19;;;19.92
82297;BMP280;71899;51.992;8.648;2023-10-19T10:23:49;98038.91;;;20.00
82297;BMP280;71899;51.992;8.648;2023-10-19T10:26:25;98044.72;;;19.51
82297;BMP280;71899;51.992;8.648;2023-10-19T10:29:21;98044.66;;;19.90
82297;BMP280;71899;51.992;8.648;2023-10-19T10:31:48;98020.81;;;19.77
82297;BMP280;71899;51.992;8.648;2023-10-19T10:37:05;98039.06;;;20.18
82297;BMP280;71899;51.992;8.648;2023-10-19T10:39:34;98036.97;;;20.40
82297;BMP280;71899;51.992;8.648;2023-10-19T10:42:07;98030.84;;;20.39
82297;BMP280;71899;51.992;8.648;2023-10-19T10:44:46;98025.25;;;20.03
82297;BMP280;71899;51.992;8.648;2023-10-19T10:47:20;98021.38;;;20.56
82297;BMP280;71899;51.992;8.648;2023-10-19T10:54:54;98021.94;;;21.27
82297;BMP280;71899;51.992;8.648;2023-10-19T10:57:20;97991.41;;;21.37
82297;BMP280;71899;51.992;8.648;2023-10-19T10:59:45;98005.19;;;21.88
82297;BMP280;71899;51.992;8.648;2023-10-19T11:02:18;98016.59;;;22.13
82297;BMP280;71899;51.992;8.648;2023-10-19T11:04:44;98019.03;;;22.15
82297;BMP280;71899;51.992;8.648;2023-10-19T11:07:17;98004.94;;;22.44
82297;BMP280;71899;51.992;8.648;2023-10-19T11:09:44;98013.22;;;22.54
82297;BMP280;71899;51.992;8.648;2023-10-19T11:12:11;98010.44;;;22.79
82297;BMP280;71899;51.992;8.648;2023-10-19T11:14:37;98015.69;;;22.19
82297;BMP280;71899;51.992;8.648;2023-10-19T11:17:12;98012.63;;;22.04
82297;BMP280;71899;51.992;8.648;2023-10-19T11:19:39;98002.34;;;22.08
82297;BMP280;71899;51.992;8.648;2023-10-19T11:22:09;97997.56;;;22.46
82297;BMP280;71899;51.992;8.648;2023-10-19T11:24:35;98009.63;;;22.31
82297;BMP280;71899;51.992;8.648;2023-10-19T11:27:05;98001.94;;;22.22
82297;BMP280;71899;51.992;8.648;2023-10-19T11:29:33;97988.09;;;22.62
82297;BMP280;71899;51.992;8.648;2023-10-19T11:31:59;97979.22;;;23.09
82297;BMP280;71899;51.992;8.648;2023-10-19T11:34:25;97991.66;;;23.62
82297;BMP280;71899;51.992;8.648;2023-10-19T11:36:53;98005.03;;;23.50
82297;BMP280;71899;51.992;8.648;2023-10-19T11:39:23;97988.75;;;23.29
82297;BMP280;71899;51.992;8.648;2023-10-19T11:41:51;97996.28;;;23.32
82297;BMP280;71899;51.992;8.648;2023-10-19T11:44:16;97983.38;;;23.87
82297;BMP280;71899;51.992;8.648;2023-10-19T11:46:41;97990.84;;;23.73
82297;BMP280;71899;51.992;8.648;2023-10-19T11:49:07;97991.19;;;23.77
82297;BMP280;71899;51.992;8.648;2023-10-19T11:51:34;97985.19;;;23.58
82297;BMP280;71899;51.992;8.648;2023-10-19T11:53:59;97978.69;;;23.54
82297;BMP280;71899;51.992;8.648;2023-10-19T11:56:25;97986.91;;;23.29
82297;BMP280;71899;51.992;8.648;2023-10-19T11:58:50;97981.66;;;23.34
82297;BMP280;71899;51.992;8.648;2023-10-19T12:01:16;97978.06;;;23.05
82297;BMP280;71899;51.992;8.648;2023-10-19T12:03:44;97984.84;;;22.78
82297;BMP280;71899;51.992;8.648;2023-10-19T12:06:13;97987.13;;;22.15
82297;BMP280;71899;51.992;8.648;2023-10-19T12:08:44;97998.91;;;21.83
82297;BMP280;71899;51.992;8.648;2023-10-19T12:11:09;97988.88;;;22.21
82297;BMP280;71899;51.992;8.648;2023-10-19T12:13:42;97981.31;;;22.36
82297;BMP280;71899;51.992;8.648;2023-10-19T12:16:14;97980.31;;;22.79
82297;BMP280;71899;51.992;8.648;2023-10-19T12:18:43;97973.84;;;22.27
82297;BMP280;71899;51.992;8.648;2023-10-19T12:21:09;97992.91;;;21.69
82297;BMP280;71899;51.992;8.648;2023-10-19T12:23:42;97983.56;;;22.03
82297;BMP280;71899;51.992;8.648;2023-10-19T12:26:08;97993.25;;;21.97
82297;BMP280;71899;51.992;8.648;2023-10-19T12:28:37;97978.38;;;22.56
82297;BMP280;71899;51.992;8.648;2023-10-19T12:31:03;97982.78;;;22.92
82297;BMP280;71899;51.992;8.648;2023-10-19T12:33:30;97986.94;;;22.88
82297;BMP280;71899;51.992;8.648;2023-10-19T12:35:56;97977.50;;;23.38
82297;BMP280;71899;51.992;8.648;2023-10-19T12:38:22;97964.28;;;23.78
82297;BMP280;71899;51.992;8.648;2023-10-19T12:40:50;97956.78;;;23.52
82297;BMP280;71899;51.992;8.648;2023-10-19T12:43:16;97947.63;;;23.48
82297;BMP280;71899;51.992;8.648;2023-10-19T12:45:44;97965.44;;;23.82
82297;BMP280;71899;51.992;8.648;2023-10-19T12:48:16;97970.66;;;23.89
82297;BMP280;71899;51.992;8.648;2023-10-19T12:50:42;97968.94;;;23.25
82297;BMP280;71899;51.992;8.648;2023-10-19T12:53:08;97962.38;;;22.97
82297;BMP280;71899;51.992;8.648;2023-10-19T12:55:34;97955.22;;;22.86
82297;BMP280;71899;51.992;8.648;2023-10-19T12:58:02;97961.66;;;22.67
82297;BMP280;71899;51.992;8.648;2023-10-19T13:00:37;97962.16;;;22.99
82297;BMP280;71899;51.992;8.648;2023-10-19T13:03:13;97959.47;;;22.76
82297;BMP280;71899;51.992;8.648;2023-10-19T13:05:39;97951.81;;;22.08
82297;BMP280;71899;51.992;8.648;2023-10-19T13:08:07;97964.22;;;21.96
82297;BMP280;71899;51.992;8.648;2023-10-19T13:10:33;97962.00;;;21.93
82297;BMP280;71899;51.992;8.648;2023-10-19T13:13:00;97941.16;;;22.08
82297;BMP280;71899;51.992;8.648;2023-10-19T13:15:33;97950.97;;;21.89
82297;BMP280;71899;51.992;8.648;2023-10-19T13:18:02;97938.63;;;21.58
82297;BMP280;71899;51.992;8.648;2023-10-19T13:20:29;97952.94;;;21.39
82297;BMP280;71899;51.992;8.648;2023-10-19T13:23:05;97952.84;;;21.03
82297;BMP280;71899;51.992;8.648;2023-10-19T13:25:32;97952.88;;;20.96
82297;BMP280;71899;51.992;8.648;2023-10-19T13:28:08;97948.31;;;20.54
82297;BMP280;71899;51.992;8.648;2023-10-19T13:30:38;97939.03;;;20.32
82297;BMP280;71899;51.992;8.648;2023-10-19T13:33:05;97948.03;;;20.31
82297;BMP280;71899;51.992;8.648;2023-10-19T13:35:31;97948.66;;;20.26
82297;BMP280;71899;51.992;8.648;2023-10-19T13:37:57;97948.31;;;20.54
82297;BMP280;71899;51.992;8.648;2023-10-19T13:40:22;97950.88;;;20.92
82297;BMP280;71899;51.992;8.648;2023-10-19T13:42:48;97937.78;;;20.97
82297;BMP280;71899;51.992;8.648;2023-10-19T13:45:14;97948.41;;;20.97
82297;BMP280;71899;51.992;8.648;2023-10-19T13:47:40;97940.56;;;20.77
82297;BMP280;71899;51.992;8.648;2023-10-19T13:50:05;97939.75;;;20.76
82297;BMP280;71899;51.992;8.648;2023-10-19T13:52:33;97937.44;;;20.87
82297;BMP280;71899;51.992;8.648;2023-10-19T13:55:00;97938.34;;;20.99
82297;BMP280;71899;51.992;8.648;2023-10-19T13:57:26;97942.41;;;20.76
82297;BMP280;71899;51.992;8.648;2023-10-19T13:59:51;97950.91;;;20.60
82297;BMP280;71899;51.992;8.648;2023-10-19T14:02:17;97957.00;;;20.23
82297;BMP280;71899;51.992;8.648;2023-10-19T14:04:44;97947.88;;;20.19
82297;BMP280;71899;51.992;8.648;2023-10-19T14:07:11;97934.22;;;20.09
82297;BMP280;71899;51.992;8.648;2023-10-19T14:09:36;97937.75;;;19.96
82297;BMP280;71899;51.992;8.648;2023-10-19T14:12:02;97940.31;;;19.71
82297;BMP280;71899;51.992;8.648;2023-10-19T14:14:29;97933.44;;;19.51
82297;BMP280;71899;51.992;8.648;2023-10-19T14:16:54;97920.81;;;19.33
82297;BMP280;71899;51.992;8.648;2023-10-19T14:19:20;97917.94;;;19.48
82297;BMP280;71899;51.992;8.648;2023-10-19T14:21:45;97932.81;;;19.62
82297;BMP280;71899;51.992;8.648;2023-10-19T14:24:12;97923.41;;;19.59
82297;BMP280;71899;51.992;8.648;2023-10-19T14:26:38;97913.22;;;19.56
82297;BMP280;71899;51.992;8.648;2023-10-19T14:29:03;97925.06;;;19.60
82297;BMP280;71899;51.992;8.648;2023-10-19T14:31:29;97934.19;;;19.71
82297;BMP280;71899;51.992;8.648;2023-10-19T14:33:54;97931.34;;;19.66